WetterOnline ( http://www.wetteronline.ch )

Wetter aktuell Emden

Aktuelles Wetter: Emden (5m)

6-stündlich | Neueste Meldungen
Ortszeit Temperatur Wetter
Di, 19.03. 7:00 1.5° C wolkenlos
Di, 19.03. 1:00 3.0° C fast wolkenlos
Mo, 18.03. 19:00 5.3° C fast wolkenlos
Mo, 18.03. 13:00 5.5° C wolkig
Mo, 18.03. 7:00 3.8° C wolkig
Mo, 18.03. 1:00 4.5° C wolkig
So, 17.03. 19:00 4.8° C leichter Regen
So, 17.03. 13:00 9.5° C wolkig
Ortszeit Temperatur Wetter
Di, 19.03. 8:30 2.6° C leicht bewölkt
Di, 19.03. 8:20 2.6° C leicht bewölkt
Di, 19.03. 8:10 2.7° C wolkig
Di, 19.03. 8:00 1.8° C wolkig
Di, 19.03. 7:50 1.8° C wolkig
Di, 19.03. 7:40 1.9° C wolkig
Di, 19.03. 7:30 1.6° C leicht bewölkt
Di, 19.03. 7:00 1.5° C wolkenlos
Di, 19.03. 6:30 1.8° C wolkenlos
Di, 19.03. 6:00 1.7° C wolkenlos
Di, 19.03. 5:30 1.9° C wolkenlos
Ortszeit Relative Feuchte Sichtweite
Di, 19.03. 7:00 90% 26 km
Di, 19.03. 1:00 86% 24 km
Mo, 18.03. 19:00 76% 30 km
Mo, 18.03. 13:00 80% 55 km
Mo, 18.03. 7:00 82% 60 km
Mo, 18.03. 1:00 86% 65 km
So, 17.03. 19:00 81% 8 km
So, 17.03. 13:00 63% >70 km
Ortszeit Relative Feuchte Sichtweite
Di, 19.03. 8:30 87% 30 km
Di, 19.03. 8:20 87% -
Di, 19.03. 8:10 87% -
Di, 19.03. 8:00 92% 24 km
Di, 19.03. 7:50 92% -
Di, 19.03. 7:40 91% -
Di, 19.03. 7:30 91% 30 km
Di, 19.03. 7:00 90% 26 km
Di, 19.03. 6:30 90% 27 km
Di, 19.03. 6:00 90% 30 km
Di, 19.03. 5:30 90% 29 km
Ortszeit Niederschlagsmenge Niederschlagsart
Di, 19.03. 7:00 0.0 l/m2 in 12 Std. -
Di, 19.03. 1:00 0.0 l/m2 in 6 Std. -
Mo, 18.03. 19:00 2 l/m2 in 12 Std. Schnee, Regen
Mo, 18.03. 13:00 1 l/m2 in 6 Std. Regen
Mo, 18.03. 7:00 1 l/m2 in 12 Std. Schnee, Regen
Mo, 18.03. 1:00 0.8 l/m2 in 6 Std. Regen
So, 17.03. 19:00 0.1 l/m2 in 12 Std. Regen
So, 17.03. 13:00 0.1 l/m2 in 6 Std. Regen
Ortszeit Niederschlagsmenge Niederschlagsart
Di, 19.03. 8:30 0.0 l/m2 in 1 Std. -
Di, 19.03. 8:20 keine Meldung -
Di, 19.03. 8:10 keine Meldung -
Di, 19.03. 8:00 0.0 l/m2 in 1 Std. -
Di, 19.03. 7:50 keine Meldung -
Di, 19.03. 7:40 keine Meldung -
Di, 19.03. 7:30 0.0 l/m2 in 1 Std. -
Di, 19.03. 7:00 0.0 l/m2 in 1 Std. -
Di, 19.03. 6:30 0.0 l/m2 in 1 Std. -
Di, 19.03. 6:00 0.0 l/m2 in 1 Std. -
Di, 19.03. 5:30 0.0 l/m2 in 1 Std. -
Ortszeit Stärke Spitze Richtung
km/h Bft. km/h Grad Sektor
Di, 19.03. 7:00 9 2 19 260° W
Di, 19.03. 1:00 13 3 31 280° W
Mo, 18.03. 19:00 17 3 57 290° W
Mo, 18.03. 13:00 20 4 61 270° W
Mo, 18.03. 7:00 25 4 54 270° W
Mo, 18.03. 1:00 25 4 54 250° W
So, 17.03. 19:00 32 5 61 270° W
So, 17.03. 13:00 32 5 54 260° W
Ortszeit Stärke Spitze Richtung
km/h Bft. km/h Grad Sektor
Di, 19.03. 8:30 9 2 13 250° W
Di, 19.03. 8:20 9 2 - 250° W
Di, 19.03. 8:10 7 2 - 240° SW
Di, 19.03. 8:00 4 1 14 290° W
Di, 19.03. 7:50 4 1 - 290° W
Di, 19.03. 7:40 6 1 - 280° W
Di, 19.03. 7:30 11 2 14 260° W
Di, 19.03. 7:00 9 2 13 260° W
Di, 19.03. 6:30 7 2 14 250° W
Di, 19.03. 6:00 9 2 15 250° W
Di, 19.03. 5:30 9 2 15 250° W
Ortszeit Untergrenze Bedeckung Gattung
total tief tief mittel hoch
Di, 19.03. 7:00 - 0/8 0/8 - - -
Di, 19.03. 1:00 1230 m 1/8 1/8 - - -
Mo, 18.03. 19:00 750 m 1/8 1/8 - - -
Mo, 18.03. 13:00 630 m 6/8 6/8 - - -
Mo, 18.03. 7:00 660 m 5/8 5/8 - - -
Mo, 18.03. 1:00 870 m 7/8 3/8 - - -
So, 17.03. 19:00 810 m 7/8 6/8 - - -
So, 17.03. 13:00 870 m 5/8 4/8 - - -
Ortszeit Bedeckungsgrad in Achtel und Wolkenuntergrenze
Di, 19.03. 8:30 3(1320m)
Di, 19.03. 8:20 3(1320m)
Di, 19.03. 8:10 5(1320m)
Di, 19.03. 8:00 2(1020m) 5(1290m)
Di, 19.03. 7:50 2(1020m) 5(1290m)
Di, 19.03. 7:40 2(1050m) 5(1290m)
Di, 19.03. 7:30 3(1350m) 6(1290m)
Di, 19.03. 7:00 keine Wolken
Di, 19.03. 6:30 keine Wolken
Di, 19.03. 6:00 keine Wolken
Di, 19.03. 5:30 keine Wolken
Ortszeit Luftdruck NN (hPa) Tendenz (hPa in 3 Std.)
Di, 19.03. 7:00 1025 + 1,4
Di, 19.03. 1:00 1022 + 1,4
Mo, 18.03. 19:00 1019 + 2,5
Mo, 18.03. 13:00 1014 + 3,0
Mo, 18.03. 7:00 1008 + 1,8
Mo, 18.03. 1:00 1004 + 1,2
So, 17.03. 19:00 1003 + 2,5
So, 17.03. 13:00 998 + 1,8
Ortszeit Luftdruck NN (hPa) Tendenz (hPa in 3 Std.)
Di, 19.03. 8:30 1026 + 1,9
Di, 19.03. 8:20 1026 keine Meldung
Di, 19.03. 8:10 1026 keine Meldung
Di, 19.03. 8:00 1026 + 1,9
Di, 19.03. 7:50 1026 keine Meldung
Di, 19.03. 7:40 1026 keine Meldung
Di, 19.03. 7:30 1025 + 1,6
Di, 19.03. 7:00 1025 + 1,4
Di, 19.03. 6:30 1025 + 1,6
Di, 19.03. 6:00 1025 + 1,3
Di, 19.03. 5:30 1024 + 1,3
Ortszeit Schneehöhe (cm)
Di, 19.03. 7:00 0
Di, 19.03. 1:00 0
Mo, 18.03. 19:00 0
Mo, 18.03. 13:00 0
Mo, 18.03. 7:00 0
Mo, 18.03. 1:00 0
So, 17.03. 19:00 0
So, 17.03. 13:00 0
Ortszeit Schneehöhe (cm)
Di, 19.03. 8:30 0
Di, 19.03. 8:20 0
Di, 19.03. 8:10 0
Di, 19.03. 8:00 0
Di, 19.03. 7:50 0
Di, 19.03. 7:40 0
Di, 19.03. 7:30 0
Di, 19.03. 7:00 0
Di, 19.03. 6:30 0
Di, 19.03. 6:00 0
Di, 19.03. 5:30 0
Link zu dieser Seite / Seite empfehlen

Das Wetter in ...